createdAt,value
2018-11-03T00:00:43.985Z,98.53
2018-11-03T00:03:12.982Z,98.13
2018-11-03T00:05:42.179Z,98.34
2018-11-03T00:08:11.444Z,98.49
2018-11-03T00:10:40.280Z,98.39
2018-11-03T00:13:08.997Z,98.27
2018-11-03T00:15:38.205Z,98.28
2018-11-03T00:18:08.275Z,97.86
2018-11-03T00:20:37.710Z,97.80
2018-11-03T00:23:06.665Z,97.99
2018-11-03T00:25:35.586Z,97.83
2018-11-03T00:28:04.360Z,97.79
2018-11-03T00:30:33.539Z,98.00
2018-11-03T00:33:02.549Z,97.75
2018-11-03T00:35:32.852Z,98.24
2018-11-03T00:38:01.890Z,98.16
2018-11-03T00:40:30.892Z,98.29
2018-11-03T00:42:59.506Z,98.22
2018-11-03T00:45:28.469Z,97.98
2018-11-03T00:47:57.257Z,98.08
2018-11-03T00:50:26.222Z,98.11
2018-11-03T00:52:54.937Z,98.23
2018-11-03T00:55:23.585Z,98.07
2018-11-03T00:57:52.297Z,98.10
2018-11-03T01:00:21.144Z,98.04
2018-11-03T01:02:50.731Z,98.23
2018-11-03T01:05:19.596Z,98.29
2018-11-03T01:07:48.980Z,98.54
2018-11-03T01:10:18.125Z,98.50
2018-11-03T01:12:46.899Z,98.25
2018-11-03T01:15:16.672Z,98.09
2018-11-03T01:17:45.811Z,98.31
2018-11-03T01:20:15.900Z,98.19
2018-11-03T01:22:45.077Z,98.17
2018-11-03T01:25:14.007Z,97.91
2018-11-03T01:27:43.522Z,97.98
2018-11-03T01:30:14.749Z,97.80
2018-11-03T01:32:43.828Z,97.81
2018-11-03T01:35:13.192Z,97.85
2018-11-03T01:37:42.307Z,97.63
2018-11-03T01:40:12.723Z,98.13
2018-11-03T01:42:41.351Z,98.23
2018-11-03T01:45:10.156Z,98.06
2018-11-03T01:47:39.261Z,97.91
2018-11-03T01:50:09.660Z,97.84
2018-11-03T01:52:38.926Z,97.98
2018-11-03T01:55:08.239Z,98.01
2018-11-03T01:57:39.407Z,98.32
2018-11-03T02:00:08.991Z,98.04
2018-11-03T02:02:38.711Z,98.15
2018-11-03T02:05:08.788Z,98.74
2018-11-03T02:07:37.876Z,98.91
2018-11-03T02:10:08.101Z,98.99
2018-11-03T02:12:37.815Z,98.98
2018-11-03T02:15:06.823Z,99.06
2018-11-03T02:17:36.038Z,98.93
2018-11-03T02:20:06.263Z,98.44
2018-11-03T02:22:36.098Z,98.79
2018-11-03T02:25:05.338Z,98.56
2018-11-03T02:27:34.603Z,98.31
2018-11-03T02:30:04.083Z,98.12
2018-11-03T02:32:32.912Z,98.22
2018-11-03T02:35:02.370Z,98.28
2018-11-03T02:37:31.700Z,98.27
2018-11-03T02:40:00.706Z,97.76
2018-11-03T02:42:30.133Z,97.75
2018-11-03T02:44:58.900Z,97.62
2018-11-03T02:47:27.772Z,97.59
2018-11-03T02:49:56.616Z,97.90
2018-11-03T02:52:25.442Z,97.70
2018-11-03T02:54:54.945Z,97.49
2018-11-03T02:57:23.741Z,97.39
2018-11-03T02:59:52.480Z,96.70
2018-11-03T03:02:22.055Z,96.84
2018-11-03T03:04:50.984Z,96.46
2018-11-03T03:07:20.175Z,96.38
2018-11-03T03:09:49.376Z,96.28
2018-11-03T03:12:18.491Z,95.95
2018-11-03T03:14:47.106Z,95.89
2018-11-03T03:17:16.236Z,95.81
2018-11-03T03:19:44.820Z,95.55
2018-11-03T03:22:13.700Z,95.40
2018-11-03T03:24:42.818Z,95.24
2018-11-03T03:27:11.536Z,95.20
2018-11-03T03:29:40.413Z,95.20
2018-11-03T03:32:09.127Z,94.91
2018-11-03T03:34:37.802Z,94.52
2018-11-03T03:37:06.966Z,94.09
2018-11-03T03:39:36.213Z,94.06
2018-11-03T03:42:04.880Z,94.22
2018-11-03T03:44:33.630Z,94.38
2018-11-03T03:47:03.106Z,94.25
2018-11-03T03:49:32.053Z,94.09
2018-11-03T03:52:01.384Z,93.93
2018-11-03T03:54:30.971Z,94.15
2018-11-03T03:56:59.892Z,94.13
2018-11-03T03:59:28.686Z,93.97
2018-11-03T04:01:57.405Z,94.52
2018-11-03T04:04:26.535Z,94.35
2018-11-03T04:06:56.929Z,94.23
2018-11-03T04:09:26.999Z,94.54
2018-11-03T04:11:56.116Z,94.31
2018-11-03T04:14:26.290Z,94.58
2018-11-03T04:16:55.172Z,94.47
2018-11-03T04:19:23.793Z,94.09
2018-11-03T04:21:53.966Z,93.98
2018-11-03T04:24:22.912Z,93.78
2018-11-03T04:26:51.640Z,93.65
2018-11-03T04:29:20.348Z,93.98
2018-11-03T04:31:49.824Z,93.75
2018-11-03T04:34:18.479Z,93.45
2018-11-03T04:36:47.308Z,93.57
2018-11-03T04:39:16.213Z,93.86
2018-11-03T04:41:44.974Z,93.61
2018-11-03T04:44:13.728Z,93.60
2018-11-03T04:46:43.319Z,93.55
2018-11-03T04:49:12.362Z,93.16
2018-11-03T04:51:41.027Z,93.30
2018-11-03T04:54:10.302Z,93.09
2018-11-03T04:56:39.342Z,93.21
2018-11-03T04:59:09.064Z,93.25
2018-11-03T05:01:38.677Z,93.91
2018-11-03T05:04:07.886Z,93.50
2018-11-03T05:06:37.348Z,93.63
2018-11-03T05:09:08.326Z,93.55
2018-11-03T05:11:37.097Z,93.70
2018-11-03T05:14:07.289Z,93.86
2018-11-03T05:16:37.253Z,94.04
2018-11-03T05:19:06.477Z,94.51
2018-11-03T05:21:35.258Z,94.58
2018-11-03T05:24:04.110Z,94.67
2018-11-03T05:26:32.769Z,94.99
2018-11-03T05:29:01.423Z,95.08
2018-11-03T05:31:30.327Z,95.08
2018-11-03T05:33:59.348Z,95.00
2018-11-03T05:36:28.914Z,95.40
2018-11-03T05:38:57.625Z,95.29
2018-11-03T05:41:26.233Z,95.20
2018-11-03T05:43:55.383Z,94.93
2018-11-03T05:46:24.732Z,94.84
2018-11-03T05:48:54.764Z,95.18
2018-11-03T05:51:24.089Z,94.94
2018-11-03T05:53:53.307Z,95.22
2018-11-03T05:56:22.444Z,94.54
2018-11-03T05:58:51.872Z,94.81
2018-11-03T06:01:21.181Z,94.90
2018-11-03T06:03:49.799Z,94.79
2018-11-03T06:06:19.364Z,94.50
2018-11-03T06:08:48.145Z,94.20
2018-11-03T06:11:16.963Z,94.18
2018-11-03T06:13:45.687Z,94.04
2018-11-03T06:16:15.393Z,94.04
2018-11-03T06:18:44.538Z,94.33
2018-11-03T06:21:14.002Z,94.07
2018-11-03T06:23:43.971Z,94.09
2018-11-03T06:26:12.780Z,93.43
2018-11-03T06:28:42.388Z,93.56
2018-11-03T06:31:11.622Z,93.81
2018-11-03T06:33:40.408Z,93.49
2018-11-03T06:36:09.254Z,93.33
2018-11-03T06:38:38.131Z,92.75
2018-11-03T06:41:07.224Z,92.63
2018-11-03T06:43:35.920Z,92.39
2018-11-03T06:46:05.395Z,92.25
2018-11-03T06:48:35.099Z,92.01
2018-11-03T06:51:04.408Z,92.07
2018-11-03T06:53:33.611Z,91.86
2018-11-03T06:56:02.482Z,91.63
2018-11-03T06:58:31.227Z,91.10
2018-11-03T07:01:00.530Z,91.29
2018-11-03T07:03:29.553Z,91.19
2018-11-03T07:05:58.389Z,90.78
2018-11-03T07:08:27.860Z,90.74
2018-11-03T07:10:56.941Z,90.47
2018-11-03T07:13:26.664Z,90.33
2018-11-03T07:15:55.530Z,90.33
2018-11-03T07:18:27.087Z,90.37
2018-11-03T07:20:56.832Z,89.90
2018-11-03T07:23:25.603Z,89.91
2018-11-03T07:25:54.390Z,89.38
2018-11-03T07:28:23.720Z,89.47
2018-11-03T07:30:52.322Z,89.13
2018-11-03T07:33:21.389Z,88.64
2018-11-03T07:35:50.359Z,88.42
2018-11-03T07:38:19.578Z,88.13
2018-11-03T07:40:48.975Z,87.70
2018-11-03T07:43:17.989Z,87.24
2018-11-03T07:45:46.913Z,87.26
2018-11-03T07:48:16.231Z,87.21
2018-11-03T07:50:45.030Z,86.93
2018-11-03T07:53:13.891Z,86.74
2018-11-03T07:55:43.078Z,86.55
2018-11-03T07:58:12.437Z,85.99
2018-11-03T08:00:41.945Z,85.70
2018-11-03T08:03:10.902Z,85.49
2018-11-03T08:05:40.148Z,85.57
2018-11-03T08:08:10.291Z,84.92
2018-11-03T08:10:39.193Z,84.45
2018-11-03T08:13:09.804Z,84.10
2018-11-03T08:15:38.731Z,84.01
2018-11-03T08:18:07.453Z,83.50
2018-11-03T08:20:36.354Z,83.57
2018-11-03T08:23:05.848Z,83.09
2018-11-03T08:25:35.093Z,83.06
2018-11-03T08:28:04.665Z,81.72
2018-11-03T08:30:33.334Z,81.38
2018-11-03T08:33:02.599Z,81.60
2018-11-03T08:35:31.567Z,81.74
2018-11-03T08:38:00.574Z,81.16
2018-11-03T08:40:29.454Z,80.81
2018-11-03T08:42:58.329Z,80.33
2018-11-03T08:45:27.672Z,79.69
2018-11-03T08:47:56.264Z,79.04
2018-11-03T08:50:26.348Z,79.58
2018-11-03T08:52:55.497Z,79.05
2018-11-03T08:55:24.472Z,79.16
2018-11-03T08:57:53.385Z,79.07
2018-11-03T09:00:22.962Z,78.82
2018-11-03T09:02:51.801Z,79.49
2018-11-03T09:05:21.423Z,79.92
2018-11-03T09:07:50.570Z,79.80
2018-11-03T09:10:19.656Z,79.27
2018-11-03T09:12:48.444Z,79.16
2018-11-03T09:15:17.503Z,79.00
2018-11-03T09:17:46.709Z,78.99
2018-11-03T09:20:15.855Z,79.33
2018-11-03T09:22:44.796Z,79.39
2018-11-03T09:25:14.774Z,79.24
2018-11-03T09:27:45.070Z,79.14
2018-11-03T09:30:17.728Z,78.81
2018-11-03T09:32:46.990Z,78.43
2018-11-03T09:35:17.041Z,78.08
2018-11-03T09:37:46.520Z,77.88
2018-11-03T09:40:16.738Z,77.47
2018-11-03T09:42:46.647Z,77.14
2018-11-03T09:45:16.743Z,77.60
2018-11-03T09:47:46.404Z,77.72
2018-11-03T09:50:16.248Z,77.41
2018-11-03T09:52:45.825Z,77.35
2018-11-03T09:55:16.764Z,76.91
2018-11-03T09:57:46.372Z,77.16
2018-11-03T10:00:17.199Z,77.04
2018-11-03T10:02:46.370Z,77.01
2018-11-03T10:05:16.358Z,77.12
2018-11-03T10:07:45.793Z,76.88
2018-11-03T10:10:16.144Z,76.63
2018-11-03T10:12:45.373Z,76.73
2018-11-03T10:15:15.710Z,76.04
2018-11-03T10:17:45.691Z,76.19
2018-11-03T10:20:14.920Z,75.18
2018-11-03T10:22:44.271Z,75.48
2018-11-03T10:25:18.386Z,75.03
2018-11-03T10:27:48.200Z,75.17
2018-11-03T10:30:18.481Z,73.94
2018-11-03T10:32:47.994Z,73.51
2018-11-03T10:35:17.465Z,72.25
2018-11-03T10:37:46.821Z,72.18
2018-11-03T10:40:17.819Z,70.77
2018-11-03T10:42:47.578Z,70.00
2018-11-03T10:45:17.621Z,70.95
2018-11-03T10:47:47.017Z,70.96
2018-11-03T10:50:18.234Z,70.80
2018-11-03T10:52:48.480Z,70.33
2018-11-03T10:55:19.014Z,70.65
2018-11-03T10:57:47.976Z,70.89
2018-11-03T11:00:24.160Z,71.45
2018-11-03T11:02:58.759Z,70.52
2018-11-03T11:05:33.447Z,70.05
2018-11-03T11:08:08.550Z,69.47
2018-11-03T11:10:42.966Z,68.46
2018-11-03T11:13:17.054Z,67.33
2018-11-03T11:15:49.045Z,65.18
2018-11-03T11:18:18.513Z,66.46
2018-11-03T11:20:47.802Z,65.51
2018-11-03T11:23:17.108Z,64.73
2018-11-03T11:25:46.434Z,63.77
2018-11-03T11:28:15.456Z,63.59
2018-11-03T11:30:46.136Z,63.15
2018-11-03T11:33:16.627Z,62.32
2018-11-03T11:35:46.004Z,61.76
2018-11-03T11:38:15.824Z,62.44
2018-11-03T11:40:45.600Z,63.50
2018-11-03T11:43:15.228Z,62.93
2018-11-03T11:45:45.091Z,62.32
2018-11-03T11:48:14.298Z,62.77
2018-11-03T11:50:43.572Z,62.92
2018-11-03T11:53:12.765Z,61.90
2018-11-03T11:55:41.840Z,62.32
2018-11-03T11:58:11.116Z,61.79
2018-11-03T12:00:40.438Z,61.75
2018-11-03T12:03:10.279Z,60.04
2018-11-03T12:05:40.630Z,59.41
2018-11-03T12:08:10.054Z,58.07
2018-11-03T12:10:39.266Z,57.36
2018-11-03T12:13:09.333Z,56.80
2018-11-03T12:15:38.608Z,55.29
2018-11-03T12:18:07.714Z,54.29
2018-11-03T12:20:37.241Z,54.81
2018-11-03T12:23:06.240Z,54.02
2018-11-03T12:25:35.033Z,53.18
2018-11-03T12:28:03.689Z,54.14
2018-11-03T12:30:32.791Z,54.03
2018-11-03T12:33:01.985Z,55.35
2018-11-03T12:35:31.231Z,55.67
2018-11-03T12:38:00.185Z,57.67
2018-11-03T12:40:30.200Z,59.35
2018-11-03T12:42:59.896Z,59.22
2018-11-03T12:45:29.349Z,59.34
2018-11-03T12:47:58.594Z,58.96
2018-11-03T12:50:27.665Z,58.81
2018-11-03T12:52:56.674Z,59.30
2018-11-03T12:55:26.044Z,58.56
2018-11-03T12:57:55.209Z,55.88
2018-11-03T13:00:24.502Z,54.94
2018-11-03T13:02:53.698Z,55.29
2018-11-03T13:05:22.779Z,54.74
2018-11-03T13:07:52.661Z,55.56
2018-11-03T13:10:21.396Z,55.43
2018-11-03T13:12:50.551Z,56.51
2018-11-03T13:15:19.666Z,55.30
2018-11-03T13:17:48.951Z,55.87
2018-11-03T13:20:18.560Z,56.16
2018-11-03T13:22:48.796Z,56.41
2018-11-03T13:25:17.880Z,57.10
2018-11-03T13:27:47.046Z,56.80
2018-11-03T13:30:16.298Z,55.69
2018-11-03T13:32:45.471Z,55.39
2018-11-03T13:35:15.575Z,54.93
2018-11-03T13:37:44.860Z,55.07
2018-11-03T13:40:14.855Z,54.75
2018-11-03T13:42:44.799Z,54.91
2018-11-03T13:45:14.222Z,55.28
2018-11-03T13:47:43.391Z,56.53
2018-11-03T13:50:14.941Z,57.12
2018-11-03T13:52:52.904Z,57.05
2018-11-03T13:55:22.630Z,58.16
2018-11-03T13:57:52.291Z,58.78
2018-11-03T14:00:21.723Z,59.15
2018-11-03T14:02:51.661Z,60.43
2018-11-03T14:05:21.225Z,60.66
2018-11-03T14:07:50.552Z,61.55
2018-11-03T14:10:20.389Z,62.51
2018-11-03T14:12:49.679Z,63.04
2018-11-03T14:15:20.026Z,63.58
2018-11-03T14:17:49.176Z,64.15
2018-11-03T14:20:22.180Z,64.31
2018-11-03T14:22:52.259Z,64.16
2018-11-03T14:25:21.446Z,64.15
2018-11-03T14:27:50.780Z,64.17
2018-11-03T14:30:20.611Z,65.46
2018-11-03T14:32:50.150Z,65.09
2018-11-03T14:35:19.682Z,65.28
2018-11-03T14:37:49.070Z,65.58
2018-11-03T14:40:18.816Z,66.03
2018-11-03T14:42:48.266Z,66.09
2018-11-03T14:45:17.746Z,66.68
2018-11-03T14:47:47.227Z,67.12
2018-11-03T14:50:16.541Z,67.57
2018-11-03T14:52:45.394Z,68.04
2018-11-03T14:55:14.292Z,68.27
2018-11-03T14:57:43.255Z,68.81
2018-11-03T15:00:15.122Z,68.87
2018-11-03T15:02:43.877Z,69.33
2018-11-03T15:05:13.507Z,69.63
2018-11-03T15:07:42.346Z,69.84
2018-11-03T15:10:12.216Z,70.01
2018-11-03T15:12:41.785Z,70.09
2018-11-03T15:15:12.831Z,70.75
2018-11-03T15:17:42.490Z,70.29
2018-11-03T15:20:11.990Z,71.01
2018-11-03T15:22:41.712Z,71.08
2018-11-03T15:25:10.944Z,71.63
2018-11-03T15:27:40.006Z,72.36
2018-11-03T15:30:10.485Z,72.39
2018-11-03T15:32:41.274Z,73.17
2018-11-03T15:35:12.888Z,73.02
2018-11-03T15:37:41.638Z,72.98
2018-11-03T15:40:12.756Z,73.01
2018-11-03T15:42:42.484Z,73.04
2018-11-03T15:45:14.262Z,73.26
2018-11-03T15:47:43.819Z,73.42
2018-11-03T15:50:13.620Z,73.39
2018-11-03T15:52:43.612Z,73.80
2018-11-03T15:55:12.825Z,74.49
2018-11-03T15:57:42.389Z,73.78
2018-11-03T16:00:14.388Z,73.97
2018-11-03T16:02:43.377Z,73.96
2018-11-03T16:05:13.533Z,73.90
2018-11-03T16:07:43.150Z,74.02
2018-11-03T16:10:13.120Z,74.94
2018-11-03T16:12:43.722Z,73.99
2018-11-03T16:15:13.500Z,74.43
2018-11-03T16:17:43.026Z,74.49
2018-11-03T16:20:12.988Z,74.65
2018-11-03T16:22:42.405Z,74.81
2018-11-03T16:25:11.370Z,75.42
2018-11-03T16:27:40.842Z,75.10
2018-11-03T16:30:11.907Z,75.96
2018-11-03T16:32:40.840Z,76.13
2018-11-03T16:35:10.190Z,75.99
2018-11-03T16:37:40.705Z,76.05
2018-11-03T16:40:11.450Z,76.01
2018-11-03T16:42:40.981Z,76.12
2018-11-03T16:45:11.594Z,76.26
2018-11-03T16:47:41.160Z,77.10
2018-11-03T16:50:11.669Z,77.72
2018-11-03T16:52:40.797Z,77.91
2018-11-03T16:55:10.810Z,77.81
2018-11-03T16:57:40.246Z,78.74
2018-11-03T17:00:11.733Z,78.37
2018-11-03T17:02:40.921Z,78.06
2018-11-03T17:05:11.092Z,78.92
2018-11-03T17:07:40.067Z,78.67
2018-11-03T17:10:12.104Z,79.12
2018-11-03T17:12:43.264Z,79.66
2018-11-03T17:15:13.265Z,79.46
2018-11-03T17:17:42.662Z,80.01
2018-11-03T17:20:12.736Z,80.73
2018-11-03T17:22:41.950Z,80.12
2018-11-03T17:25:11.848Z,79.57
2018-11-03T17:27:40.655Z,79.80
2018-11-03T17:30:12.176Z,80.28
2018-11-03T17:32:41.295Z,80.43
2018-11-03T17:35:10.377Z,80.43
2018-11-03T17:37:39.457Z,81.17
2018-11-03T17:40:09.463Z,81.00
2018-11-03T17:42:38.652Z,81.11
2018-11-03T17:45:09.446Z,81.09
2018-11-03T17:47:39.136Z,80.93
2018-11-03T17:50:09.361Z,81.01
2018-11-03T17:52:38.350Z,80.84
2018-11-03T17:55:07.836Z,81.46
2018-11-03T17:57:36.917Z,81.11
2018-11-03T18:00:14.911Z,81.90
2018-11-03T18:02:45.296Z,81.91
2018-11-03T18:05:15.281Z,82.82
2018-11-03T18:07:44.447Z,82.63
2018-11-03T18:10:13.831Z,82.51
2018-11-03T18:12:43.591Z,81.66
2018-11-03T18:15:13.192Z,81.63
2018-11-03T18:17:42.533Z,81.73
2018-11-03T18:20:12.199Z,82.17
2018-11-03T18:22:41.665Z,82.33
2018-11-03T18:25:11.085Z,82.60
2018-11-03T18:27:39.847Z,82.50
2018-11-03T18:30:10.348Z,82.80
2018-11-03T18:32:39.698Z,82.65
2018-11-03T18:35:09.095Z,83.00
2018-11-03T18:37:38.329Z,82.40
2018-11-03T18:40:08.195Z,82.72
2018-11-03T18:42:37.860Z,83.09
2018-11-03T18:45:07.050Z,83.40
2018-11-03T18:47:37.045Z,83.13
2018-11-03T18:50:08.713Z,82.94
2018-11-03T18:52:39.392Z,82.95
2018-11-03T18:55:08.772Z,83.33
2018-11-03T18:57:37.727Z,83.77
2018-11-03T19:00:08.068Z,83.91
2018-11-03T19:02:37.254Z,83.86
2018-11-03T19:05:06.581Z,84.36
2018-11-03T19:07:36.228Z,83.92
2018-11-03T19:10:05.796Z,84.27
2018-11-03T19:12:35.601Z,84.38
2018-11-03T19:15:06.113Z,84.67
2018-11-03T19:17:35.121Z,84.88
2018-11-03T19:20:04.134Z,84.67
2018-11-03T19:22:33.117Z,84.67
2018-11-03T19:25:02.182Z,85.02
2018-11-03T19:27:31.423Z,85.44
2018-11-03T19:30:00.615Z,85.84
2018-11-03T19:32:29.957Z,86.12
2018-11-03T19:34:59.103Z,86.47
2018-11-03T19:37:28.263Z,86.42
2018-11-03T19:39:58.450Z,86.85
2018-11-03T19:42:27.593Z,86.73
2018-11-03T19:44:57.651Z,86.73
2018-11-03T19:47:27.007Z,86.86
2018-11-03T19:49:55.967Z,86.50
2018-11-03T19:52:24.841Z,87.00
2018-11-03T19:54:53.894Z,87.25
2018-11-03T19:57:23.171Z,87.87
2018-11-03T19:59:52.314Z,87.60
2018-11-03T20:02:21.759Z,87.17
2018-11-03T20:04:50.642Z,87.92
2018-11-03T20:07:19.883Z,88.04
2018-11-03T20:09:49.127Z,88.41
2018-11-03T20:12:18.469Z,88.43
2018-11-03T20:14:47.722Z,88.26
2018-11-03T20:17:16.564Z,88.48
2018-11-03T20:19:45.974Z,88.37
2018-11-03T20:22:14.877Z,88.73
2018-11-03T20:24:44.519Z,88.93
2018-11-03T20:27:13.777Z,88.51
2018-11-03T20:29:42.909Z,88.91
2018-11-03T20:32:12.198Z,88.60
2018-11-03T20:34:41.360Z,88.68
2018-11-03T20:37:10.598Z,89.07
2018-11-03T20:39:39.459Z,89.85
2018-11-03T20:42:09.004Z,90.02
2018-11-03T20:44:38.142Z,90.28
2018-11-03T20:47:07.384Z,90.18
2018-11-03T20:49:37.000Z,89.88
2018-11-03T20:52:07.116Z,89.95
2018-11-03T20:54:36.267Z,89.68
2018-11-03T20:57:05.363Z,89.72
2018-11-03T20:59:34.691Z,89.67
2018-11-03T21:02:03.909Z,90.35
2018-11-03T21:04:34.095Z,90.56
2018-11-03T21:07:03.198Z,90.45
2018-11-03T21:09:32.567Z,90.49
2018-11-03T21:12:02.212Z,90.25
2018-11-03T21:14:31.813Z,90.86
2018-11-03T21:17:01.298Z,91.01
2018-11-03T21:19:30.476Z,91.34
2018-11-03T21:21:59.992Z,91.00
2018-11-03T21:24:28.939Z,90.81
2018-11-03T21:26:57.953Z,90.96
2018-11-03T21:29:27.092Z,91.23
2018-11-03T21:31:56.059Z,91.32
2018-11-03T21:34:24.897Z,91.74
2018-11-03T21:36:53.858Z,91.65
2018-11-03T21:39:23.073Z,91.45
2018-11-03T21:41:52.275Z,91.24
2018-11-03T21:44:21.476Z,91.70
2018-11-03T21:46:50.810Z,91.81
2018-11-03T21:49:20.018Z,91.40
2018-11-03T21:51:49.059Z,92.14
2018-11-03T21:54:18.477Z,91.91
2018-11-03T21:56:47.523Z,91.90
2018-11-03T21:59:16.472Z,91.62
2018-11-03T22:01:46.133Z,91.34
2018-11-03T22:04:15.972Z,91.14
2018-11-03T22:06:45.524Z,90.80
2018-11-03T22:09:14.321Z,91.52
2018-11-03T22:11:44.018Z,91.45
2018-11-03T22:14:13.148Z,91.48
2018-11-03T22:16:42.392Z,91.42
2018-11-03T22:19:11.517Z,91.77
2018-11-03T22:21:40.931Z,92.11
2018-11-03T22:24:09.973Z,91.64
2018-11-03T22:26:39.327Z,91.96
2018-11-03T22:29:08.370Z,92.26
2018-11-03T22:31:37.901Z,92.74
2018-11-03T22:34:07.954Z,93.33
2018-11-03T22:36:37.297Z,93.04
2018-11-03T22:39:08.506Z,92.66
2018-11-03T22:41:37.764Z,92.52
2018-11-03T22:44:06.716Z,92.44
2018-11-03T22:46:35.875Z,92.11
2018-11-03T22:49:05.437Z,91.79
2018-11-03T22:51:34.528Z,91.66
2018-11-03T22:54:03.715Z,91.87
2018-11-03T22:56:32.465Z,91.76
2018-11-03T22:59:01.272Z,92.26
2018-11-03T23:01:32.163Z,92.31
2018-11-03T23:04:01.359Z,92.32
2018-11-03T23:06:31.354Z,92.39
2018-11-03T23:09:01.043Z,92.47
2018-11-03T23:11:30.717Z,93.36
2018-11-03T23:13:59.503Z,93.46
2018-11-03T23:16:28.491Z,93.11
2018-11-03T23:18:57.808Z,92.93
2018-11-03T23:21:27.059Z,93.25
2018-11-03T23:23:56.744Z,93.36
2018-11-03T23:26:25.611Z,93.55
2018-11-03T23:28:54.673Z,93.36
2018-11-03T23:31:24.931Z,93.45
2018-11-03T23:33:53.705Z,93.43
2018-11-03T23:36:22.488Z,93.60
2018-11-03T23:38:51.534Z,93.57
2018-11-03T23:41:20.402Z,93.22
2018-11-03T23:43:49.034Z,93.47
2018-11-03T23:46:18.268Z,93.64
2018-11-03T23:48:47.447Z,93.50
2018-11-03T23:51:16.364Z,93.64
2018-11-03T23:53:44.992Z,93.67
2018-11-03T23:56:13.799Z,94.17
2018-11-03T23:58:44.470Z,93.88
